Mayfield, Idaho
Current Conditions -  °F | °C
As of 8:53 AM on Thursday 23 Oct 2014 (Local Time) from KBOI Reporting Station
Light Rain Light Rain  
Wind Chill: 54°   Ceiling: 6500
Heat Index: 54°   Visibility: 10mi
Dew Point: 45°   Wind: 6mph
Humidity: 72%   Direction: 150°SSE
Pressure: 30.04"   Gusts: NA
Location:  43.5418°N, 116.118°W
Report Text: KBOI 231453Z 15005KT 10SM -RA BKN065 OVC090 12/07 A3004 RMK AO2 RAB30 SLP163 P0000 60001 T01220072 53003
Loading
Personal Weather Stations






























Interactive Weather Map
Tropical Storm Tracking
New forecast layout! Learn more

10-Day Weather Forecast

Advertisements
Track Severe Weather on mobile